Time;durP1;ratioP1;P1;durP2;ratioP2;P2;SDS_P1;SDS_P2;PMS_P1;PMS_P2;Temp;Humidity;BMP_temperature;BMP_pressure;BME280_temperature;BME280_humidity;BME280_pressure;Samples;Min_cycle;Max_cycle;Signal;HPM_P1;HPM_P2
2022/09/29 00:00:24;;;;;;;9.38;4.85;;;;;;;22.43;55.38;100656.08;1739813;81;21471;-53
2022/09/29 00:02:50;;;;;;;7.45;5.35;;;;;;;22.42;55.47;100651.72;1743436;80;21545;-53
2022/09/29 00:05:17;;;;;;;8.48;5.35;;;;;;;22.40;55.39;100652.31;1749547;80;21018;-53
2022/09/29 00:07:44;;;;;;;11.18;5.70;;;;;;;22.38;55.16;100650.25;1743086;81;21026;-53
2022/09/29 00:10:11;;;;;;;8.48;5.08;;;;;;;22.36;55.23;100650.84;1746928;80;21049;-53
2022/09/29 00:12:38;;;;;;;11.97;5.25;;;;;;;22.35;55.23;100657.12;1740755;81;21564;-54
2022/09/29 00:15:06;;;;;;;13.30;6.10;;;;;;;22.33;55.13;100655.05;1749945;80;21549;-53
2022/09/29 00:17:33;;;;;;;9.65;5.47;;;;;;;22.31;55.12;100649.02;1743758;80;21593;-53
2022/09/29 00:20:00;;;;;;;9.08;5.15;;;;;;;22.30;55.19;100657.91;1746076;81;21023;-53
2022/09/29 00:22:27;;;;;;;6.80;5.33;;;;;;;22.29;55.11;100657.55;1743942;80;21022;-53
2022/09/29 00:24:54;;;;;;;10.93;5.40;;;;;;;22.28;54.96;100663.80;1746293;81;21588;-53
2022/09/29 00:27:20;;;;;;;6.83;5.03;;;;;;;22.28;54.92;100661.63;1738966;80;21471;-54
2022/09/29 00:29:47;;;;;;;7.22;4.90;;;;;;;22.27;54.93;100657.29;1741535;81;21090;-53
2022/09/29 00:32:13;;;;;;;8.00;5.05;;;;;;;22.25;54.91;100658.73;1734618;81;21065;-53
2022/09/29 00:34:40;;;;;;;7.08;5.47;;;;;;;22.25;54.89;100653.91;1740082;81;21042;-53
2022/09/29 00:37:07;;;;;;;7.03;4.95;;;;;;;22.24;54.82;100653.05;1735691;81;21081;-54
2022/09/29 00:39:33;;;;;;;8.25;5.40;;;;;;;22.24;54.89;100661.00;1745401;81;21054;-53
2022/09/29 00:42:00;;;;;;;8.93;5.35;;;;;;;22.22;54.84;100661.59;1738659;80;21537;-54
2022/09/29 00:45:07;;;;;;;5.92;4.90;;;;;;;22.21;54.79;100661.23;1744397;80;21070;-54
2022/09/29 00:47:35;;;;;;;9.43;5.60;;;;;;;22.21;54.71;100661.23;1738780;81;21101;-54
2022/09/29 00:50:22;;;;;;;6.35;4.97;;;;;;;22.19;54.79;100662.30;1759856;80;21053;-53
2022/09/29 00:52:55;;;;;;;9.50;5.75;;;;;;;22.18;54.82;100660.58;1593164;89;21562;-54
2022/09/29 00:55:30;;;;;;;11.33;6.20;;;;;;;22.16;54.89;100660.70;1575081;91;21086;-53
2022/09/29 00:58:04;;;;;;;11.93;5.58;;;;;;;22.16;54.97;100663.35;1576004;90;21145;-53
2022/09/29 01:00:31;;;;;;;8.20;5.50;;;;;;;22.15;54.88;100667.45;1575534;90;21084;-53
2022/09/29 01:03:05;;;;;;;7.95;5.33;;;;;;;22.13;54.89;100660.08;1577993;91;21088;-54
2022/09/29 01:05:34;;;;;;;6.85;5.33;;;;;;;22.12;54.88;100664.53;1504409;94;21233;-53
2022/09/29 01:08:11;;;;;;;8.13;5.40;;;;;;;22.10;54.95;100666.44;1493050;94;21101;-53
2022/09/29 01:10:39;;;;;;;6.50;5.15;;;;;;;22.09;55.02;100660.75;1501626;94;21153;-53
2022/09/29 01:13:06;;;;;;;7.45;5.58;;;;;;;22.07;55.12;100666.64;1505426;94;21671;-53
2022/09/29 01:15:33;;;;;;;11.57;5.67;;;;;;;22.07;55.30;100673.27;1502294;95;21153;-54
2022/09/29 01:18:01;;;;;;;8.50;5.40;;;;;;;22.06;55.41;100667.61;1500387;94;21103;-53
2022/09/29 01:20:28;;;;;;;8.80;5.47;;;;;;;22.05;55.45;100668.55;1501605;94;21183;-53
2022/09/29 01:23:12;;;;;;;8.18;5.20;;;;;;;22.04;55.54;100670.84;1483597;94;21108;-53
2022/09/29 01:26:20;;;;;;;8.93;5.40;;;;;;;22.04;55.69;100676.62;1495460;94;21589;-53
2022/09/29 01:29:23;;;;;;;9.28;5.47;;;;;;;22.03;55.91;100678.41;1501635;94;21076;-53
2022/09/29 01:31:58;;;;;;;6.47;4.50;;;;;;;22.01;55.97;100682.97;1576754;89;21062;-53
2022/09/29 01:34:37;;;;;;;6.47;4.70;;;;;;;22.00;56.02;100683.09;1572105;89;21069;-53
2022/09/29 01:37:24;;;;;;;7.62;4.97;;;;;;;21.98;55.79;100680.55;1569590;90;21046;-53
2022/09/29 01:40:12;;;;;;;9.78;4.70;;;;;;;21.98;55.52;100687.65;1575312;90;21097;-53
2022/09/29 01:43:08;;;;;;;6.55;4.78;;;;;;;21.96;55.46;100689.55;1574194;89;21074;-53
2022/09/29 01:45:42;;;;;;;6.20;4.40;;;;;;;21.93;55.39;100687.14;1574299;89;21129;-53
2022/09/29 01:48:15;;;;;;;9.20;5.12;;;;;;;21.92;55.36;100686.28;1579496;90;21117;-53
2022/09/29 01:50:46;;;;;;;6.70;4.65;;;;;;;21.90;55.23;100693.48;1542182;91;21103;-53
2022/09/29 01:53:17;;;;;;;5.10;4.40;;;;;;;21.90;55.52;100686.86;1522673;92;21088;-53
2022/09/29 01:55:49;;;;;;;7.58;4.75;;;;;;;21.91;55.95;100685.07;1516572;93;21599;-53
2022/09/29 01:58:20;;;;;;;6.58;4.55;;;;;;;21.91;56.37;100683.75;1484618;95;21151;-53
2022/09/29 02:00:52;;;;;;;5.78;4.42;;;;;;;21.93;56.66;100686.64;1459066;96;21147;-53
2022/09/29 02:03:24;;;;;;;8.70;4.42;;;;;;;21.95;56.86;100688.70;1494950;94;21061;-54
2022/09/29 02:05:57;;;;;;;7.87;4.30;;;;;;;21.97;56.95;100689.44;1475051;97;21159;-53
2022/09/29 02:08:44;;;;;;;5.87;3.92;;;;;;;21.99;56.97;100688.86;1450876;98;21118;-53
2022/09/29 02:11:12;;;;;;;5.20;4.50;;;;;;;22.02;57.06;100692.62;1466362;98;21143;-53
2022/09/29 02:13:56;;;;;;;5.53;3.95;;;;;;;22.04;57.13;100692.05;1466247;98;21196;-53
2022/09/29 02:16:28;;;;;;;5.08;3.55;;;;;;;22.06;57.13;100691.46;1466168;98;21089;-53
2022/09/29 02:19:06;;;;;;;6.33;3.65;;;;;;;22.06;57.15;100691.46;1425108;100;21945;-53
2022/09/29 02:21:33;;;;;;;7.92;4.10;;;;;;;22.08;57.03;100689.55;1427210;100;21630;-53
2022/09/29 02:24:00;;;;;;;5.10;3.70;;;;;;;22.09;56.89;100688.58;1425321;100;21167;-53
2022/09/29 02:26:30;;;;;;;5.30;3.27;;;;;;;22.09;56.77;100687.25;1426456;100;21180;-54
2022/09/29 02:28:57;;;;;;;6.60;3.55;;;;;;;22.10;56.58;100692.94;1424616;100;21146;-53
2022/09/29 02:31:23;;;;;;;4.67;3.80;;;;;;;22.10;56.41;100692.94;1421228;100;21178;-53
2022/09/29 02:33:50;;;;;;;4.78;3.72;;;;;;;22.11;56.35;100686.70;1414212;101;21179;-53
2022/09/29 02:36:32;;;;;;;4.90;3.75;;;;;;;22.11;56.18;100688.49;1412407;101;21100;-53
2022/09/29 02:39:16;;;;;;;;;;;;;;;22.10;56.01;100681.48;1414777;101;21600;-53
2022/09/29 02:41:51;;;;;;;6.92;4.60;;;;;;;22.08;55.79;100681.60;1474996;97;20169;-53
2022/09/29 02:44:29;;;;;;;5.05;3.83;;;;;;;22.05;55.75;100680.48;1470169;97;21621;-53
2022/09/29 02:47:17;;;;;;;8.23;4.58;;;;;;;22.03;55.78;100677.09;1461148;97;21152;-53
2022/09/29 02:50:01;;;;;;;5.95;4.22;;;;;;;22.00;55.95;100679.97;1439679;99;21101;-53
2022/09/29 02:52:42;;;;;;;7.70;3.80;;;;;;;21.99;55.88;100686.20;1423162;99;21141;-53
2022/09/29 02:55:19;;;;;;;4.70;3.20;;;;;;;21.98;55.66;100687.65;1447651;98;21100;-53
2022/09/29 02:57:54;;;;;;;6.10;3.95;;;;;;;21.94;55.53;100684.37;1449106;97;21168;-53
2022/09/29 03:00:21;;;;;;;6.50;4.17;;;;;;;21.92;55.52;100687.61;1451159;97;21157;-53
2022/09/29 03:02:47;;;;;;;7.75;3.35;;;;;;;21.89;55.46;100683.83;1461676;97;21158;-53
2022/09/29 03:05:19;;;;;;;6.37;3.77;;;;;;;21.87;55.58;100691.04;1595654;87;21586;-54
2022/09/29 03:07:46;;;;;;;7.92;3.90;;;;;;;21.86;55.65;100686.70;1592316;89;21084;-53
2022/09/29 03:10:15;;;;;;;5.47;3.60;;;;;;;21.84;55.80;100678.02;1577661;89;21137;-53
2022/09/29 03:12:42;;;;;;;6.42;3.98;;;;;;;21.83;55.97;100686.91;1590944;88;21070;-54
2022/09/29 03:17:39;;;;;;;7.35;3.77;;;;;;;21.82;56.14;100676.78;1612840;85;21015;-54
2022/09/29 03:20:07;;;;;;;6.35;4.37;;;;;;;21.82;56.20;100677.28;1653844;84;21066;-53
2022/09/29 03:22:34;;;;;;;8.23;4.17;;;;;;;21.81;56.36;100678.19;1672637;84;21043;-53
2022/09/29 03:25:04;;;;;;;6.25;4.28;;;;;;;21.81;56.46;100675.53;1658147;84;21020;-53
2022/09/29 03:27:32;;;;;;;7.55;3.90;;;;;;;21.82;56.58;100677.28;1681110;84;21051;-53
2022/09/29 03:30:00;;;;;;;7.28;4.00;;;;;;;21.81;56.80;100680.83;1685621;84;21471;-55
2022/09/29 03:32:27;;;;;;;5.22;3.65;;;;;;;21.81;57.02;100675.53;1690257;84;21015;-53
2022/09/29 03:34:54;;;;;;;6.80;3.95;;;;;;;21.84;57.21;100669.58;1651739;83;21032;-54
2022/09/29 03:37:21;;;;;;;8.63;4.37;;;;;;;21.86;57.42;100678.77;1666574;85;21484;-53
2022/09/29 03:39:47;;;;;;;8.13;4.20;;;;;;;21.88;57.48;100682.97;1686910;85;20992;-54
2022/09/29 03:42:16;;;;;;;11.08;4.33;;;;;;;21.90;57.59;100678.92;1667321;84;21154;-53
2022/09/29 03:44:42;;;;;;;8.95;4.37;;;;;;;21.90;57.68;100674.95;1667159;83;21070;-53
2022/09/29 03:47:09;;;;;;;5.62;4.17;;;;;;;21.93;57.79;100673.39;1650515;84;21629;-53
2022/09/29 03:49:36;;;;;;;7.08;4.20;;;;;;;21.94;57.89;100676.42;1652197;84;21593;-54
2022/09/29 03:52:03;;;;;;;6.85;4.00;;;;;;;21.97;57.95;100687.30;1673378;84;21081;-54
2022/09/29 03:54:30;;;;;;;7.12;3.98;;;;;;;21.97;58.04;100682.81;1670218;83;21063;-53
2022/09/29 03:56:57;;;;;;;6.03;3.70;;;;;;;21.99;58.20;100684.88;1664317;84;21008;-53
2022/09/29 03:59:23;;;;;;;5.67;3.87;;;;;;;22.01;58.35;100689.59;1665930;84;21056;-53
2022/09/29 04:01:49;;;;;;;5.40;3.80;;;;;;;22.03;58.42;100690.84;1663591;84;21066;-53
2022/09/29 04:04:16;;;;;;;9.30;3.62;;;;;;;22.05;58.41;100700.34;1662351;85;21024;-53
2022/09/29 04:06:43;;;;;;;7.42;3.80;;;;;;;22.06;58.74;100696.76;1682057;84;21019;-53
2022/09/29 04:09:10;;;;;;;5.28;3.58;;;;;;;22.08;58.91;100690.87;1680178;83;21048;-54
2022/09/29 04:11:36;;;;;;;6.78;3.30;;;;;;;22.09;59.01;100693.88;1661662;83;21099;-53
2022/09/29 04:14:03;;;;;;;5.53;3.50;;;;;;;22.12;59.14;100700.30;1676403;82;21621;-53
2022/09/29 04:16:31;;;;;;;3.62;2.85;;;;;;;22.13;59.29;100696.72;1741164;80;21062;-53
2022/09/29 04:18:58;;;;;;;4.37;2.85;;;;;;;22.16;59.38;100695.63;1744784;81;21077;-53
2022/09/29 04:21:24;;;;;;;4.62;3.02;;;;;;;22.17;59.55;100699.52;1759420;80;21054;-55
2022/09/29 04:23:51;;;;;;;4.72;2.58;;;;;;;22.21;59.65;100701.00;1748746;81;21035;-53
2022/09/29 04:26:19;;;;;;;2.67;2.47;;;;;;;22.22;59.64;100702.67;1741278;81;21110;-55
2022/09/29 04:28:46;;;;;;;4.75;2.60;;;;;;;22.25;59.80;100697.64;1739424;81;21045;-54
2022/09/29 04:31:14;;;;;;;2.95;2.40;;;;;;;22.26;59.95;100704.15;1744104;80;21038;-53
2022/09/29 04:33:40;;;;;;;7.83;3.17;;;;;;;22.29;60.11;100711.91;1741730;80;21090;-54
2022/09/29 04:36:09;;;;;;;4.60;2.75;;;;;;;22.31;60.28;100711.31;1747765;80;21034;-53
2022/09/29 04:38:35;;;;;;;3.77;2.27;;;;;;;22.35;60.41;100714.11;1741992;81;21031;-53
2022/09/29 04:41:02;;;;;;;6.33;2.62;;;;;;;22.39;60.49;100711.61;1739233;81;21059;-53
2022/09/29 04:43:28;;;;;;;3.85;2.10;;;;;;;22.43;60.67;100715.73;1746344;80;21078;-54
2022/09/29 04:46:04;;;;;;;4.80;2.65;;;;;;;22.47;60.91;100717.22;1749047;80;21022;-53
2022/09/29 04:48:31;;;;;;;3.55;2.40;;;;;;;22.51;60.97;100714.71;1763761;80;21116;-53
2022/09/29 04:50:58;;;;;;;2.92;2.40;;;;;;;22.55;61.14;100717.52;1734685;81;21033;-54
2022/09/29 04:53:24;;;;;;;3.08;2.10;;;;;;;22.60;61.31;100726.03;1743693;81;21016;-54
2022/09/29 04:55:51;;;;;;;2.95;2.62;;;;;;;22.63;61.48;100721.81;1743488;81;21518;-54
2022/09/29 04:58:17;;;;;;;4.03;2.58;;;;;;;22.68;61.57;100724.14;1750344;81;21031;-53
2022/09/29 05:00:44;;;;;;;4.47;2.52;;;;;;;22.74;61.69;100722.84;1742014;81;21102;-53
2022/09/29 05:03:11;;;;;;;4.53;2.70;;;;;;;22.79;61.82;100728.20;1740265;81;21051;-54
2022/09/29 05:05:37;;;;;;;6.10;2.75;;;;;;;22.84;61.98;100729.17;1742651;81;21058;-54
2022/09/29 05:08:05;;;;;;;3.42;2.45;;;;;;;22.89;62.14;100731.03;1751106;80;21039;-54
2022/09/29 05:10:32;;;;;;;6.55;2.85;;;;;;;22.94;62.27;100727.54;1745831;80;21042;-55
2022/09/29 05:12:59;;;;;;;4.05;2.45;;;;;;;23.00;62.38;100736.41;1751538;81;21031;-54
2022/09/29 05:15:26;;;;;;;5.55;2.80;;;;;;;23.06;62.51;100736.78;1743796;81;21514;-54
2022/09/29 05:17:54;;;;;;;2.90;2.58;;;;;;;23.11;62.63;100740.43;1748904;81;21035;-54
2022/09/29 05:20:20;;;;;;;4.45;2.50;;;;;;;23.17;62.67;100739.97;1743777;80;21054;-55
2022/09/29 05:22:47;;;;;;;3.25;2.70;;;;;;;23.22;62.71;100747.98;1742359;80;21034;-55
2022/09/29 05:25:13;;;;;;;5.87;3.55;;;;;;;23.27;62.76;100740.98;1755500;80;21034;-54
2022/09/29 05:27:40;;;;;;;4.08;3.58;;;;;;;23.34;62.86;100747.58;1745771;80;21006;-54
2022/09/29 05:30:08;;;;;;;5.80;4.03;;;;;;;23.40;63.03;100742.66;1740729;81;21129;-53
2022/09/29 05:32:35;;;;;;;5.97;3.62;;;;;;;23.47;63.15;100743.05;1738337;81;20979;-54
2022/09/29 05:35:04;;;;;;;6.28;3.72;;;;;;;23.53;63.21;100739.94;1745605;81;21507;-54
2022/09/29 05:37:31;;;;;;;3.80;3.50;;;;;;;23.60;63.31;100733.17;1737300;81;21058;-54
2022/09/29 05:39:57;;;;;;;6.47;4.20;;;;;;;23.65;63.30;100727.52;1745870;81;21042;-53
2022/09/29 05:42:24;;;;;;;6.37;3.72;;;;;;;23.71;63.26;100735.87;1734221;81;21055;-54
2022/09/29 05:44:51;;;;;;;7.75;4.33;;;;;;;23.76;63.21;100737.68;1742488;80;21036;-54
2022/09/29 05:47:18;;;;;;;4.70;3.50;;;;;;;23.81;63.19;100740.84;1744325;80;21007;-54
2022/09/29 05:49:45;;;;;;;4.22;3.47;;;;;;;23.86;63.15;100741.83;1755577;80;21049;-54
2022/09/29 05:52:13;;;;;;;3.65;3.30;;;;;;;23.90;63.21;100744.14;1744485;80;21023;-54
2022/09/29 05:54:40;;;;;;;5.25;4.05;;;;;;;23.97;63.27;100744.48;1740681;81;21058;-54
2022/09/29 05:57:07;;;;;;;4.15;3.75;;;;;;;24.02;63.24;100745.84;1736715;82;21551;-54
2022/09/29 05:59:34;;;;;;;3.75;3.42;;;;;;;24.07;63.18;100745.02;1741383;81;21039;-54
2022/09/29 06:02:00;;;;;;;4.17;3.60;;;;;;;24.12;63.05;100752.17;1747891;80;21004;-54
2022/09/29 06:04:27;;;;;;;4.03;3.65;;;;;;;24.18;62.90;100750.36;1746912;81;22758;-54
2022/09/29 06:06:56;;;;;;;4.42;3.83;;;;;;;24.22;62.78;100747.82;1741160;81;21114;-54
2022/09/29 06:09:22;;;;;;;4.85;4.10;;;;;;;24.25;62.66;100743.58;1741181;80;21062;-53
2022/09/29 06:11:48;;;;;;;4.97;4.08;;;;;;;24.31;62.75;100751.58;1749206;81;21078;-54
2022/09/29 06:14:16;;;;;;;4.97;4.17;;;;;;;24.36;62.92;100745.91;1767879;80;21046;-54
2022/09/29 06:16:43;;;;;;;5.03;4.45;;;;;;;24.43;63.10;100747.95;1750222;81;21467;-53
2022/09/29 06:19:10;;;;;;;6.70;4.78;;;;;;;24.51;63.15;100755.30;1739730;81;21054;-55
2022/09/29 06:21:38;;;;;;;4.35;3.95;;;;;;;24.57;63.00;100757.48;1742509;81;21041;-54
2022/09/29 06:24:06;;;;;;;6.53;4.17;;;;;;;24.63;62.75;100758.31;1744813;80;21120;-53
2022/09/29 06:26:33;;;;;;;6.47;4.22;;;;;;;24.67;62.53;100759.77;1748407;80;21057;-54
2022/09/29 06:29:00;;;;;;;4.53;4.12;;;;;;;24.70;62.22;100760.86;1747374;81;21518;-54
2022/09/29 06:31:28;;;;;;;5.22;4.33;;;;;;;24.72;62.00;100765.10;1743973;81;21066;-54
2022/09/29 06:34:02;;;;;;;4.42;4.08;;;;;;;24.74;61.91;100770.33;1745154;81;21066;-54
2022/09/29 06:39:21;;;;;;;5.03;4.50;;;;;;;24.79;61.95;100780.13;1697433;83;21050;-54
2022/09/29 06:41:52;;;;;;;4.42;4.03;;;;;;;24.83;61.94;100784.23;1681766;83;21067;-54
2022/09/29 06:44:17;;;;;;;7.20;4.35;;;;;;;24.86;61.88;100777.31;1697401;83;21076;-54
2022/09/29 06:46:44;;;;;;;5.60;4.97;;;;;;;24.89;61.85;100782.41;1710787;83;21051;-54
2022/09/29 06:49:12;;;;;;;8.78;4.53;;;;;;;24.96;61.90;100786.25;1706214;83;21042;-54
2022/09/29 06:51:39;;;;;;;7.08;4.60;;;;;;;25.01;61.92;100784.08;1700713;83;21086;-54
2022/09/29 06:54:05;;;;;;;4.55;4.20;;;;;;;25.08;62.03;100788.42;1697592;83;21060;-53
2022/09/29 06:56:32;;;;;;;4.78;4.28;;;;;;;25.14;61.99;100801.23;1689749;82;21083;-53
2022/09/29 06:59:00;;;;;;;5.15;3.95;;;;;;;25.19;61.60;100798.55;1707486;83;21563;-54
2022/09/29 07:01:27;;;;;;;6.20;4.20;;;;;;;25.24;61.38;100795.52;1700741;83;21095;-54
2022/09/29 07:03:53;;;;;;;5.00;4.22;;;;;;;25.29;61.18;100794.16;1703541;83;21168;-54
2022/09/29 07:06:20;;;;;;;6.45;4.70;;;;;;;25.33;61.05;100798.27;1708070;82;21713;-53
2022/09/29 07:08:47;;;;;;;6.50;5.15;;;;;;;25.38;61.14;100803.22;1706173;83;21083;-54
2022/09/29 07:11:15;;;;;;;4.72;4.33;;;;;;;25.41;61.20;100800.34;1694074;83;21003;-53
2022/09/29 07:13:42;;;;;;;5.67;4.95;;;;;;;25.46;61.12;100798.98;1709226;83;21016;-53
2022/09/29 07:16:12;;;;;;;6.90;4.78;;;;;;;25.51;61.05;100807.42;1697448;83;21117;-54
2022/09/29 07:18:41;;;;;;;5.08;4.67;;;;;;;25.55;61.12;100806.23;1692937;83;21068;-53
2022/09/29 07:21:11;;;;;;;5.22;4.72;;;;;;;25.61;61.09;100808.38;1695802;83;21036;-54
2022/09/29 07:23:40;;;;;;;8.83;5.33;;;;;;;25.66;61.00;100815.49;1699543;83;21087;-54
2022/09/29 07:26:08;;;;;;;8.55;5.95;;;;;;;25.70;60.92;100813.41;1700813;81;21102;-54
2022/09/29 07:28:35;;;;;;;6.50;5.67;;;;;;;25.75;61.01;100808.07;1716818;82;21087;-53
2022/09/29 07:31:09;;;;;;;6.03;5.37;;;;;;;25.79;61.03;100814.83;1691041;83;21086;-53
2022/09/29 07:33:36;;;;;;;6.25;5.65;;;;;;;25.84;60.97;100813.94;1715650;83;21091;-54
2022/09/29 07:36:03;;;;;;;6.85;5.50;;;;;;;25.90;60.78;100818.41;1736139;80;21042;-54
2022/09/29 07:38:30;;;;;;;6.05;5.42;;;;;;;25.94;60.59;100814.52;1749776;80;21019;-55
2022/09/29 07:41:06;;;;;;;8.38;5.08;;;;;;;25.98;60.38;100812.80;1755804;80;21031;-53
2022/09/29 07:43:33;;;;;;;7.83;5.47;;;;;;;25.99;60.19;100817.14;1751954;80;21043;-54
2022/09/29 07:46:00;;;;;;;6.20;5.60;;;;;;;26.02;59.82;100820.89;1741823;80;21091;-52
2022/09/29 07:48:27;;;;;;;5.80;4.83;;;;;;;26.02;59.82;100820.89;1756627;80;21045;-52
2022/09/29 07:51:06;;;;;;;6.42;5.03;;;;;;;26.04;59.95;100818.09;1742691;82;21049;-53
2022/09/29 07:53:35;;;;;;;5.60;4.92;;;;;;;26.05;60.10;100815.28;1758598;80;21478;-53
2022/09/29 07:56:10;;;;;;;8.13;5.12;;;;;;;26.07;60.14;100819.17;1747065;80;21553;-53
2022/09/29 07:58:38;;;;;;;8.95;5.40;;;;;;;26.08;60.14;100820.41;1634724;86;21181;-52
2022/09/29 08:01:09;;;;;;;6.40;4.65;;;;;;;26.11;60.23;100820.64;1627216;86;21074;-52
2022/09/29 08:03:38;;;;;;;5.50;4.83;;;;;;;26.13;60.28;100825.35;1624306;87;21086;-52
2022/09/29 08:06:06;;;;;;;7.22;4.90;;;;;;;26.16;60.21;100821.07;1655182;86;22430;-53
2022/09/29 08:08:36;;;;;;;5.30;4.55;;;;;;;26.18;60.18;100823.97;1618660;86;21069;-54
2022/09/29 08:11:11;;;;;;;6.60;4.80;;;;;;;26.20;59.93;100828.69;1608510;88;21054;-52
2022/09/29 08:13:37;;;;;;;7.42;5.05;;;;;;;26.23;59.76;100832.92;1627089;86;21089;-52
2022/09/29 08:16:07;;;;;;;6.95;5.28;;;;;;;26.26;59.76;100829.98;1641834;86;21145;-53
2022/09/29 08:18:34;;;;;;;7.22;5.60;;;;;;;26.28;59.92;100830.69;1624452;86;21144;-53
2022/09/29 08:21:01;;;;;;;6.37;5.10;;;;;;;26.33;60.10;100825.82;1634864;86;21581;-52
2022/09/29 08:23:28;;;;;;;7.78;5.85;;;;;;;26.38;59.96;100828.44;1620296;86;21058;-52
2022/09/29 08:26:06;;;;;;;5.50;5.00;;;;;;;26.45;59.97;100831.42;1633158;86;21308;-53
2022/09/29 08:28:35;;;;;;;6.03;5.33;;;;;;;26.54;59.91;100834.64;1615775;87;21102;-53
2022/09/29 08:31:14;;;;;;;5.40;4.80;;;;;;;26.61;59.69;100840.64;1606433;87;21581;-52
2022/09/29 08:33:41;;;;;;;8.93;4.83;;;;;;;26.69;59.23;100842.63;1602168;87;21153;-52
2022/09/29 08:36:13;;;;;;;6.75;5.12;;;;;;;26.76;58.95;100839.83;1617979;87;21694;-53
2022/09/29 08:38:41;;;;;;;5.47;4.75;;;;;;;26.81;58.66;100837.58;1608304;87;21111;-52
2022/09/29 08:41:05;;;;;;;8.53;5.25;;;;;;;26.87;58.22;100841.08;1621341;87;21087;-53
2022/09/29 08:43:37;;;;;;;6.12;5.00;;;;;;;26.87;58.22;100841.08;1619540;87;21119;-52
2022/09/29 08:46:35;;;;;;;7.20;4.65;;;;;;;26.90;58.16;100844.80;1615916;87;21099;-54
2022/09/29 08:49:07;;;;;;;6.87;4.72;;;;;;;26.92;58.01;100837.49;1605617;86;21074;-53
2022/09/29 08:51:42;;;;;;;6.35;5.03;;;;;;;26.92;58.26;100832.16;1620969;87;21082;-53
2022/09/29 08:54:32;;;;;;;8.05;4.65;;;;;;;26.92;58.26;100832.16;1604310;85;21064;-53
2022/09/29 08:57:00;;;;;;;6.03;4.20;;;;;;;26.96;58.12;100840.25;1639521;86;21070;-52
2022/09/29 08:59:27;;;;;;;6.65;4.20;;;;;;;26.98;57.94;100835.61;1622484;88;21217;-52
2022/09/29 09:02:21;;;;;;;7.65;4.50;;;;;;;26.99;57.87;100834.65;1606445;88;21640;-53
2022/09/29 09:04:59;;;;;;;8.23;4.15;;;;;;;27.01;57.73;100837.17;1621577;86;21609;-53
2022/09/29 09:07:59;;;;;;;6.75;3.90;;;;;;;27.03;57.61;100840.07;1628395;86;21167;-53
2022/09/29 09:13:46;;;;;;;7.22;3.83;;;;;;;27.08;57.56;100835.14;1603982;87;21172;-54
2022/09/29 09:16:45;;;;;;;7.33;4.45;;;;;;;27.10;57.51;100837.70;1606053;87;21112;-53
2022/09/29 09:19:37;;;;;;;10.93;4.50;;;;;;;27.14;57.41;100834.59;1607771;87;21564;-54
2022/09/29 09:22:22;;;;;;;7.35;4.17;;;;;;;27.17;57.58;100835.67;1621824;87;21532;-53
2022/09/29 09:25:00;;;;;;;9.13;4.50;;;;;;;27.24;57.59;100836.80;1629218;87;21202;-54
2022/09/29 09:27:34;;;;;;;6.95;3.55;;;;;;;27.28;57.20;100832.89;1625404;86;21121;-53
2022/09/29 09:30:07;;;;;;;9.05;3.77;;;;;;;27.36;56.95;100835.75;1658404;84;21060;-55
2022/09/29 09:32:38;;;;;;;8.50;4.37;;;;;;;27.36;56.95;100835.75;1595403;88;21138;-53
2022/09/29 09:35:33;;;;;;;4.42;3.58;;;;;;;27.44;56.74;100832.86;1588351;89;21109;-54
2022/09/29 09:38:22;;;;;;;10.50;4.45;;;;;;;27.44;56.74;100832.86;1590140;88;21151;-54
2022/09/29 09:40:52;;;;;;;7.40;4.05;;;;;;;27.47;56.24;100832.59;1593607;88;21148;-53
2022/09/29 09:43:26;;;;;;;8.93;4.35;;;;;;;27.49;56.36;100835.48;1558148;90;21581;-54
2022/09/29 09:46:23;;;;;;;5.75;3.75;;;;;;;27.50;56.31;100825.62;1500950;94;21172;-53
2022/09/29 09:49:27;;;;;;;8.48;4.17;;;;;;;27.56;56.12;100831.73;1482794;95;21647;-53
2022/09/29 09:52:05;;;;;;;7.03;3.85;;;;;;;27.59;55.93;100827.47;1447115;97;21688;-53
2022/09/29 09:54:45;;;;;;;6.75;4.05;;;;;;;27.60;55.54;100827.80;1393696;102;21182;-53
2022/09/29 09:57:49;;;;;;;6.65;3.50;;;;;;;27.59;55.42;100827.47;1397279;101;21073;-53
2022/09/29 10:00:38;;;;;;;5.42;3.40;;;;;;;27.56;55.34;100827.73;1404796;101;21113;-53
2022/09/29 10:03:06;;;;;;;8.03;3.90;;;;;;;27.56;55.34;100827.73;1346746;104;21161;-53
2022/09/29 10:05:40;;;;;;;8.33;3.72;;;;;;;27.54;55.09;100828.36;1358642;102;21252;-54
2022/09/29 10:08:12;;;;;;;10.48;4.28;;;;;;;27.52;55.50;100826.33;1340312;106;21187;-53
2022/09/29 10:10:41;;;;;;;6.53;3.95;;;;;;;27.52;55.50;100826.33;1365141;103;21108;-54
2022/09/29 10:13:12;;;;;;;11.03;3.90;;;;;;;27.51;55.42;100824.17;1355311;104;21627;-53
2022/09/29 10:16:11;;;;;;;9.65;3.90;;;;;;;27.56;55.56;100832.59;1342660;106;21347;-53
2022/09/29 10:18:51;;;;;;;6.20;3.70;;;;;;;27.56;55.56;100832.59;1334628;106;21226;-54
2022/09/29 10:21:42;;;;;;;10.13;3.80;;;;;;;27.61;55.50;100832.17;1344072;106;21640;-53
2022/09/29 10:24:29;;;;;;;9.78;4.30;;;;;;;27.64;55.43;100835.41;1378705;102;21310;-53
2022/09/29 10:26:58;;;;;;;7.60;4.08;;;;;;;27.66;55.32;100835.26;1372897;102;21251;-53
2022/09/29 10:29:40;;;;;;;8.03;4.12;;;;;;;27.69;55.26;100834.99;1371068;101;21256;-53
2022/09/29 10:32:36;;;;;;;8.38;4.33;;;;;;;27.70;55.21;100838.03;1409151;99;21104;-52
2022/09/29 10:35:17;;;;;;;9.60;4.70;;;;;;;27.70;55.18;100836.18;1436049;98;21575;-52
2022/09/29 10:37:48;;;;;;;6.60;3.98;;;;;;;27.72;55.17;100842.75;1434386;99;21193;-52
2022/09/29 10:40:20;;;;;;;8.00;3.98;;;;;;;27.73;55.15;100845.27;1473216;96;21180;-52
2022/09/29 10:42:49;;;;;;;;;;;;;;;27.75;55.08;100842.45;1520076;91;21129;-52
2022/09/29 10:45:31;;;;;;;6.17;4.10;;;;;;;27.76;55.00;100836.13;1543755;91;20400;-52
2022/09/29 10:48:05;;;;;;;8.83;3.62;;;;;;;27.79;54.95;100842.52;1617011;85;21058;-52
2022/09/29 10:51:00;;;;;;;5.65;3.50;;;;;;;27.80;54.78;100842.89;1653207;86;21054;-53
2022/09/29 10:53:40;;;;;;;10.15;4.28;;;;;;;27.80;54.71;100838.88;1670655;84;21018;-52
2022/09/29 10:56:16;;;;;;;9.68;4.00;;;;;;;27.83;54.60;100842.58;1542557;91;21130;-53
2022/09/29 10:58:47;;;;;;;6.08;3.95;;;;;;;27.84;54.47;100837.61;1535078;91;21076;-53
2022/09/29 11:01:15;;;;;;;8.70;4.00;;;;;;;27.84;54.32;100840.28;1531867;92;21150;-53
2022/09/29 11:04:03;;;;;;;7.70;4.03;;;;;;;27.84;54.32;100840.28;1545743;92;21131;-53
2022/09/29 11:06:37;;;;;;;7.50;3.83;;;;;;;27.85;54.21;100839.28;1553832;90;21046;-53
2022/09/29 11:09:21;;;;;;;7.72;4.45;;;;;;;27.83;53.99;100837.23;1542187;91;21625;-53
2022/09/29 11:11:53;;;;;;;5.90;4.08;;;;;;;27.83;53.99;100837.23;1544514;92;21140;-53
2022/09/29 11:14:40;;;;;;;9.95;4.30;;;;;;;27.83;53.41;100829.22;1555491;91;21138;-53
2022/09/29 11:17:27;;;;;;;9.80;4.78;;;;;;;27.83;53.41;100829.22;1547799;92;21656;-54
2022/09/29 11:20:04;;;;;;;10.85;4.65;;;;;;;27.83;53.76;100831.89;1525804;92;21085;-53
2022/09/29 11:23:16;;;;;;;9.73;4.55;;;;;;;27.83;53.69;100829.22;1540678;88;21105;-53
2022/09/29 11:26:04;;;;;;;10.50;4.78;;;;;;;27.81;53.62;100824.50;1529597;92;21728;-53
2022/09/29 11:28:46;;;;;;;7.95;4.75;;;;;;;27.80;53.66;100829.52;1527222;92;21106;-52
2022/09/29 11:31:39;;;;;;;7.17;4.60;;;;;;;27.79;53.66;100831.82;1525404;93;21633;-52
2022/09/29 11:34:46;;;;;;;10.08;5.00;;;;;;;27.74;53.63;100835.43;1535695;93;21034;-52
2022/09/29 11:38:02;;;;;;;9.13;5.08;;;;;;;27.70;53.87;100824.67;1499674;95;21174;-52
2022/09/29 11:40:55;;;;;;;9.85;5.67;;;;;;;27.70;53.87;100824.67;1437500;98;21257;-53
2022/09/29 11:43:53;;;;;;;7.85;5.62;;;;;;;27.67;53.99;100819.58;1440733;98;21090;-53
2022/09/29 11:47:00;;;;;;;8.03;4.87;;;;;;;27.65;54.02;100822.89;1436799;97;21144;-53
2022/09/29 11:49:44;;;;;;;8.98;5.37;;;;;;;27.65;54.02;100822.89;1464706;96;21122;-52
2022/09/29 11:52:28;;;;;;;11.08;6.05;;;;;;;27.51;53.96;100833.52;1470043;96;21191;-53
2022/09/29 11:55:07;;;;;;;8.68;5.20;;;;;;;27.51;53.96;100833.52;1463203;96;21198;-55
2022/09/29 11:57:52;;;;;;;12.98;5.35;;;;;;;27.47;54.26;100833.93;1416015;99;21803;-56
2022/09/29 12:00:20;;;;;;;9.50;6.60;;;;;;;27.38;54.58;100833.78;1389513;102;21675;-54